sensor_id;sensor_type;location;lat;lon;timestamp;P1;durP1;ratioP1;P2;durP2;ratioP2
81651;SDS011;71061;55.714;37.794;2024-02-23T00:00:03;30.00;;;13.20;;
81651;SDS011;71061;55.714;37.794;2024-02-23T00:03:18;26.13;;;12.52;;
81651;SDS011;71061;55.714;37.794;2024-02-23T00:05:59;32.08;;;13.90;;
81651;SDS011;71061;55.714;37.794;2024-02-23T00:09:18;28.80;;;14.45;;
81651;SDS011;71061;55.714;37.794;2024-02-23T00:11:53;25.42;;;13.43;;
81651;SDS011;71061;55.714;37.794;2024-02-23T00:14:29;26.60;;;13.23;;
81651;SDS011;71061;55.714;37.794;2024-02-23T00:17:18;24.08;;;11.85;;
81651;SDS011;71061;55.714;37.794;2024-02-23T00:19:48;25.48;;;12.32;;
81651;SDS011;71061;55.714;37.794;2024-02-23T00:22:23;24.15;;;12.68;;
81651;SDS011;71061;55.714;37.794;2024-02-23T00:24:55;25.23;;;12.80;;
81651;SDS011;71061;55.714;37.794;2024-02-23T00:27:40;28.85;;;13.52;;
81651;SDS011;71061;55.714;37.794;2024-02-23T00:34:10;26.20;;;12.50;;
81651;SDS011;71061;55.714;37.794;2024-02-23T01:01:31;21.65;;;11.23;;
81651;SDS011;71061;55.714;37.794;2024-02-23T01:04:02;22.42;;;10.95;;
81651;SDS011;71061;55.714;37.794;2024-02-23T01:06:34;21.58;;;11.05;;
81651;SDS011;71061;55.714;37.794;2024-02-23T01:09:11;24.85;;;12.20;;
81651;SDS011;71061;55.714;37.794;2024-02-23T01:15:56;24.85;;;11.50;;
81651;SDS011;71061;55.714;37.794;2024-02-23T01:44:53;21.52;;;10.38;;
81651;SDS011;71061;55.714;37.794;2024-02-23T01:47:39;23.48;;;10.88;;
81651;SDS011;71061;55.714;37.794;2024-02-23T01:50:41;22.58;;;11.68;;
81651;SDS011;71061;55.714;37.794;2024-02-23T01:53:41;21.88;;;10.80;;
81651;SDS011;71061;55.714;37.794;2024-02-23T01:56:45;26.17;;;11.23;;
81651;SDS011;71061;55.714;37.794;2024-02-23T01:59:58;24.75;;;11.57;;
81651;SDS011;71061;55.714;37.794;2024-02-23T02:48:14;25.33;;;11.63;;
81651;SDS011;71061;55.714;37.794;2024-02-23T02:51:26;26.98;;;12.45;;
81651;SDS011;71061;55.714;37.794;2024-02-23T02:54:44;24.45;;;10.77;;
81651;SDS011;71061;55.714;37.794;2024-02-23T02:57:35;22.70;;;10.07;;
81651;SDS011;71061;55.714;37.794;2024-02-23T03:00:10;27.25;;;12.45;;
81651;SDS011;71061;55.714;37.794;2024-02-23T03:03:30;24.05;;;11.27;;
81651;SDS011;71061;55.714;37.794;2024-02-23T03:09:02;25.92;;;11.50;;
81651;SDS011;71061;55.714;37.794;2024-02-23T03:11:32;28.98;;;13.70;;
81651;SDS011;71061;55.714;37.794;2024-02-23T03:14:04;24.70;;;11.13;;
81651;SDS011;71061;55.714;37.794;2024-02-23T03:16:33;25.13;;;10.85;;
81651;SDS011;71061;55.714;37.794;2024-02-23T03:19:21;31.67;;;13.80;;
81651;SDS011;71061;55.714;37.794;2024-02-23T03:21:49;24.20;;;10.65;;
81651;SDS011;71061;55.714;37.794;2024-02-23T03:24:32;28.70;;;12.02;;
81651;SDS011;71061;55.714;37.794;2024-02-23T03:26:59;26.10;;;12.38;;
81651;SDS011;71061;55.714;37.794;2024-02-23T03:29:34;24.05;;;11.95;;
81651;SDS011;71061;55.714;37.794;2024-02-23T03:32:42;24.00;;;11.25;;
81651;SDS011;71061;55.714;37.794;2024-02-23T03:35:15;25.67;;;11.55;;
81651;SDS011;71061;55.714;37.794;2024-02-23T03:37:50;26.58;;;11.43;;
81651;SDS011;71061;55.714;37.794;2024-02-23T03:40:17;26.40;;;11.30;;
81651;SDS011;71061;55.714;37.794;2024-02-23T03:42:46;23.73;;;11.00;;
81651;SDS011;71061;55.714;37.794;2024-02-23T03:45:13;22.92;;;11.48;;
81651;SDS011;71061;55.714;37.794;2024-02-23T03:47:48;25.27;;;10.70;;
81651;SDS011;71061;55.714;37.794;2024-02-23T03:50:20;23.13;;;10.85;;
81651;SDS011;71061;55.714;37.794;2024-02-23T03:53:01;23.67;;;10.38;;
81651;SDS011;71061;55.714;37.794;2024-02-23T03:55:29;25.00;;;10.95;;
81651;SDS011;71061;55.714;37.794;2024-02-23T03:58:05;24.38;;;10.60;;
81651;SDS011;71061;55.714;37.794;2024-02-23T04:00:32;23.58;;;11.73;;
81651;SDS011;71061;55.714;37.794;2024-02-23T04:03:00;25.27;;;12.55;;
81651;SDS011;71061;55.714;37.794;2024-02-23T04:08:28;23.92;;;11.07;;
81651;SDS011;71061;55.714;37.794;2024-02-23T04:11:16;26.95;;;10.93;;
81651;SDS011;71061;55.714;37.794;2024-02-23T04:14:07;27.67;;;11.57;;
81651;SDS011;71061;55.714;37.794;2024-02-23T04:16:51;25.75;;;11.18;;
81651;SDS011;71061;55.714;37.794;2024-02-23T04:19:26;27.85;;;11.93;;
81651;SDS011;71061;55.714;37.794;2024-02-23T04:21:54;26.15;;;11.68;;
81651;SDS011;71061;55.714;37.794;2024-02-23T04:24:25;27.83;;;10.68;;
81651;SDS011;71061;55.714;37.794;2024-02-23T04:26:56;26.90;;;12.50;;
81651;SDS011;71061;55.714;37.794;2024-02-23T04:29:24;24.55;;;11.25;;
81651;SDS011;71061;55.714;37.794;2024-02-23T04:32:04;27.58;;;12.38;;
81651;SDS011;71061;55.714;37.794;2024-02-23T04:34:31;26.02;;;12.07;;
81651;SDS011;71061;55.714;37.794;2024-02-23T04:37:05;30.15;;;12.20;;
81651;SDS011;71061;55.714;37.794;2024-02-23T04:39:35;22.98;;;10.65;;
81651;SDS011;71061;55.714;37.794;2024-02-23T04:42:27;27.33;;;12.43;;
81651;SDS011;71061;55.714;37.794;2024-02-23T04:44:57;22.48;;;10.60;;
81651;SDS011;71061;55.714;37.794;2024-02-23T04:47:31;25.90;;;11.13;;
81651;SDS011;71061;55.714;37.794;2024-02-23T04:50:11;25.67;;;11.05;;
81651;SDS011;71061;55.714;37.794;2024-02-23T04:52:46;26.10;;;12.20;;
81651;SDS011;71061;55.714;37.794;2024-02-23T04:55:51;27.45;;;12.02;;
81651;SDS011;71061;55.714;37.794;2024-02-23T04:58:35;26.10;;;11.30;;
81651;SDS011;71061;55.714;37.794;2024-02-23T05:01:27;27.13;;;11.32;;
81651;SDS011;71061;55.714;37.794;2024-02-23T05:04:36;25.52;;;10.80;;
81651;SDS011;71061;55.714;37.794;2024-02-23T05:21:22;26.25;;;12.60;;
81651;SDS011;71061;55.714;37.794;2024-02-23T05:24:04;25.38;;;11.73;;
81651;SDS011;71061;55.714;37.794;2024-02-23T05:26:31;24.60;;;12.27;;
81651;SDS011;71061;55.714;37.794;2024-02-23T05:29:00;31.58;;;11.07;;
81651;SDS011;71061;55.714;37.794;2024-02-23T05:31:48;26.58;;;10.63;;
81651;SDS011;71061;55.714;37.794;2024-02-23T05:34:44;27.30;;;11.98;;
81651;SDS011;71061;55.714;37.794;2024-02-23T05:37:11;24.13;;;11.05;;
81651;SDS011;71061;55.714;37.794;2024-02-23T05:39:53;25.13;;;11.68;;
81651;SDS011;71061;55.714;37.794;2024-02-23T05:42:22;27.42;;;11.63;;
81651;SDS011;71061;55.714;37.794;2024-02-23T05:44:49;30.30;;;12.57;;
81651;SDS011;71061;55.714;37.794;2024-02-23T05:47:16;27.88;;;12.60;;
81651;SDS011;71061;55.714;37.794;2024-02-23T05:49:50;26.65;;;11.43;;
81651;SDS011;71061;55.714;37.794;2024-02-23T05:52:44;27.38;;;12.48;;
81651;SDS011;71061;55.714;37.794;2024-02-23T05:55:14;28.60;;;12.93;;
81651;SDS011;71061;55.714;37.794;2024-02-23T05:57:54;22.90;;;11.10;;
81651;SDS011;71061;55.714;37.794;2024-02-23T06:01:03;30.30;;;11.73;;
81651;SDS011;71061;55.714;37.794;2024-02-23T06:03:50;28.52;;;12.07;;
81651;SDS011;71061;55.714;37.794;2024-02-23T06:06:52;25.90;;;12.23;;
81651;SDS011;71061;55.714;37.794;2024-02-23T06:09:30;24.65;;;11.43;;
81651;SDS011;71061;55.714;37.794;2024-02-23T06:12:09;26.17;;;11.95;;
81651;SDS011;71061;55.714;37.794;2024-02-23T06:14:53;26.02;;;12.20;;
81651;SDS011;71061;55.714;37.794;2024-02-23T06:17:24;30.58;;;11.75;;
81651;SDS011;71061;55.714;37.794;2024-02-23T06:19:55;29.63;;;13.68;;
81651;SDS011;71061;55.714;37.794;2024-02-23T06:22:29;28.50;;;13.30;;
81651;SDS011;71061;55.714;37.794;2024-02-23T06:25:10;26.77;;;12.30;;
81651;SDS011;71061;55.714;37.794;2024-02-23T06:27:40;29.48;;;12.48;;
81651;SDS011;71061;55.714;37.794;2024-02-23T06:30:11;29.08;;;12.10;;
81651;SDS011;71061;55.714;37.794;2024-02-23T06:32:51;25.90;;;11.60;;
81651;SDS011;71061;55.714;37.794;2024-02-23T06:35:46;32.88;;;12.40;;
81651;SDS011;71061;55.714;37.794;2024-02-23T06:38:42;27.52;;;12.13;;
81651;SDS011;71061;55.714;37.794;2024-02-23T06:41:35;24.08;;;11.32;;
81651;SDS011;71061;55.714;37.794;2024-02-23T06:44:12;28.35;;;11.68;;
81651;SDS011;71061;55.714;37.794;2024-02-23T06:46:50;28.88;;;11.15;;
81651;SDS011;71061;55.714;37.794;2024-02-23T06:49:27;29.35;;;12.48;;
81651;SDS011;71061;55.714;37.794;2024-02-23T06:52:22;24.35;;;11.15;;
81651;SDS011;71061;55.714;37.794;2024-02-23T06:55:30;25.15;;;11.80;;
81651;SDS011;71061;55.714;37.794;2024-02-23T06:58:32;24.98;;;11.90;;
81651;SDS011;71061;55.714;37.794;2024-02-23T07:01:20;28.13;;;11.82;;
81651;SDS011;71061;55.714;37.794;2024-02-23T07:05:42;26.73;;;12.40;;
81651;SDS011;71061;55.714;37.794;2024-02-23T07:09:47;22.67;;;11.75;;
81651;SDS011;71061;55.714;37.794;2024-02-23T07:28:04;24.25;;;11.10;;
81651;SDS011;71061;55.714;37.794;2024-02-23T07:54:03;24.52;;;12.43;;
81651;SDS011;71061;55.714;37.794;2024-02-23T08:03:07;22.77;;;9.32;;
81651;SDS011;71061;55.714;37.794;2024-02-23T08:06:04;22.75;;;9.75;;
81651;SDS011;71061;55.714;37.794;2024-02-23T08:27:50;23.08;;;10.70;;
81651;SDS011;71061;55.714;37.794;2024-02-23T08:30:17;22.23;;;9.45;;
81651;SDS011;71061;55.714;37.794;2024-02-23T08:32:47;19.02;;;9.02;;
81651;SDS011;71061;55.714;37.794;2024-02-23T08:35:59;29.88;;;14.13;;
81651;SDS011;71061;55.714;37.794;2024-02-23T08:39:12;23.33;;;9.77;;
81651;SDS011;71061;55.714;37.794;2024-02-23T08:46:06;26.38;;;10.60;;
81651;SDS011;71061;55.714;37.794;2024-02-23T08:48:39;23.42;;;9.40;;
81651;SDS011;71061;55.714;37.794;2024-02-23T08:51:37;20.80;;;9.05;;
81651;SDS011;71061;55.714;37.794;2024-02-23T08:54:51;18.95;;;9.05;;
81651;SDS011;71061;55.714;37.794;2024-02-23T08:58:11;25.52;;;10.38;;
81651;SDS011;71061;55.714;37.794;2024-02-23T09:40:26;21.20;;;9.93;;
81651;SDS011;71061;55.714;37.794;2024-02-23T09:46:08;19.85;;;9.43;;
81651;SDS011;71061;55.714;37.794;2024-02-23T09:48:49;20.23;;;8.57;;
81651;SDS011;71061;55.714;37.794;2024-02-23T09:55:42;18.02;;;8.73;;
81651;SDS011;71061;55.714;37.794;2024-02-23T10:01:17;18.75;;;9.18;;
81651;SDS011;71061;55.714;37.794;2024-02-23T10:04:11;20.38;;;8.95;;
81651;SDS011;71061;55.714;37.794;2024-02-23T10:07:03;21.73;;;9.32;;
81651;SDS011;71061;55.714;37.794;2024-02-23T10:09:46;28.30;;;9.05;;
81651;SDS011;71061;55.714;37.794;2024-02-23T10:33:23;22.65;;;9.93;;
81651;SDS011;71061;55.714;37.794;2024-02-23T10:58:04;26.45;;;10.55;;
81651;SDS011;71061;55.714;37.794;2024-02-23T11:14:07;26.88;;;10.93;;
81651;SDS011;71061;55.714;37.794;2024-02-23T11:21:05;27.33;;;12.25;;
81651;SDS011;71061;55.714;37.794;2024-02-23T11:23:40;23.20;;;10.40;;
81651;SDS011;71061;55.714;37.794;2024-02-23T11:26:10;23.00;;;9.75;;
81651;SDS011;71061;55.714;37.794;2024-02-23T11:28:42;24.20;;;10.93;;
81651;SDS011;71061;55.714;37.794;2024-02-23T11:31:34;25.80;;;12.10;;
81651;SDS011;71061;55.714;37.794;2024-02-23T11:34:13;22.55;;;10.02;;
81651;SDS011;71061;55.714;37.794;2024-02-23T11:36:50;21.15;;;12.27;;
81651;SDS011;71061;55.714;37.794;2024-02-23T11:41:48;23.55;;;10.20;;
81651;SDS011;71061;55.714;37.794;2024-02-23T11:44:21;25.80;;;12.02;;
81651;SDS011;71061;55.714;37.794;2024-02-23T11:46:56;25.67;;;12.38;;
81651;SDS011;71061;55.714;37.794;2024-02-23T11:49:33;26.13;;;12.35;;
81651;SDS011;71061;55.714;37.794;2024-02-23T11:52:01;26.23;;;11.40;;
81651;SDS011;71061;55.714;37.794;2024-02-23T11:54:30;25.00;;;12.40;;
81651;SDS011;71061;55.714;37.794;2024-02-23T11:56:59;23.70;;;12.38;;
81651;SDS011;71061;55.714;37.794;2024-02-23T11:59:26;26.42;;;12.13;;
81651;SDS011;71061;55.714;37.794;2024-02-23T12:01:54;28.40;;;12.45;;
81651;SDS011;71061;55.714;37.794;2024-02-23T12:04:42;28.60;;;11.73;;
81651;SDS011;71061;55.714;37.794;2024-02-23T12:07:19;28.52;;;12.35;;
81651;SDS011;71061;55.714;37.794;2024-02-23T12:09:47;29.10;;;12.95;;
81651;SDS011;71061;55.714;37.794;2024-02-23T12:12:15;29.65;;;13.10;;
81651;SDS011;71061;55.714;37.794;2024-02-23T12:14:52;32.95;;;13.70;;
81651;SDS011;71061;55.714;37.794;2024-02-23T12:17:19;29.33;;;14.52;;
81651;SDS011;71061;55.714;37.794;2024-02-23T12:19:45;33.30;;;13.25;;
81651;SDS011;71061;55.714;37.794;2024-02-23T12:22:24;38.10;;;15.43;;
81651;SDS011;71061;55.714;37.794;2024-02-23T12:24:58;28.00;;;13.23;;
81651;SDS011;71061;55.714;37.794;2024-02-23T12:27:28;28.02;;;13.48;;
81651;SDS011;71061;55.714;37.794;2024-02-23T12:29:55;31.48;;;13.80;;
81651;SDS011;71061;55.714;37.794;2024-02-23T12:32:21;26.27;;;12.10;;
81651;SDS011;71061;55.714;37.794;2024-02-23T12:34:55;30.58;;;13.90;;
81651;SDS011;71061;55.714;37.794;2024-02-23T12:37:38;27.10;;;13.77;;
81651;SDS011;71061;55.714;37.794;2024-02-23T12:40:25;33.30;;;14.73;;
81651;SDS011;71061;55.714;37.794;2024-02-23T12:42:52;37.67;;;15.57;;
81651;SDS011;71061;55.714;37.794;2024-02-23T12:45:19;35.55;;;15.68;;
81651;SDS011;71061;55.714;37.794;2024-02-23T12:47:45;35.90;;;15.63;;
81651;SDS011;71061;55.714;37.794;2024-02-23T12:50:16;32.80;;;12.82;;
81651;SDS011;71061;55.714;37.794;2024-02-23T12:53:04;29.50;;;13.45;;
81651;SDS011;71061;55.714;37.794;2024-02-23T12:55:37;34.38;;;13.93;;
81651;SDS011;71061;55.714;37.794;2024-02-23T12:58:27;33.60;;;14.70;;
81651;SDS011;71061;55.714;37.794;2024-02-23T13:00:57;33.80;;;14.50;;
81651;SDS011;71061;55.714;37.794;2024-02-23T13:03:25;35.80;;;15.38;;
81651;SDS011;71061;55.714;37.794;2024-02-23T13:05:56;37.55;;;14.88;;
81651;SDS011;71061;55.714;37.794;2024-02-23T13:08:33;32.50;;;14.55;;
81651;SDS011;71061;55.714;37.794;2024-02-23T13:11:01;43.70;;;13.80;;
81651;SDS011;71061;55.714;37.794;2024-02-23T13:13:50;32.60;;;13.98;;
81651;SDS011;71061;55.714;37.794;2024-02-23T13:16:19;32.65;;;14.57;;
81651;SDS011;71061;55.714;37.794;2024-02-23T13:19:05;36.17;;;14.10;;
81651;SDS011;71061;55.714;37.794;2024-02-23T13:21:35;34.92;;;14.48;;
81651;SDS011;71061;55.714;37.794;2024-02-23T13:24:07;36.42;;;15.32;;
81651;SDS011;71061;55.714;37.794;2024-02-23T13:27:14;35.05;;;15.05;;
81651;SDS011;71061;55.714;37.794;2024-02-23T13:29:39;33.97;;;14.77;;
81651;SDS011;71061;55.714;37.794;2024-02-23T13:32:06;36.90;;;15.43;;
81651;SDS011;71061;55.714;37.794;2024-02-23T13:34:33;41.83;;;15.40;;
81651;SDS011;71061;55.714;37.794;2024-02-23T13:37:00;35.42;;;15.07;;
81651;SDS011;71061;55.714;37.794;2024-02-23T13:39:58;36.75;;;16.98;;
81651;SDS011;71061;55.714;37.794;2024-02-23T13:46:19;43.92;;;17.70;;
81651;SDS011;71061;55.714;37.794;2024-02-23T13:49:03;46.20;;;18.38;;
81651;SDS011;71061;55.714;37.794;2024-02-23T13:51:48;36.40;;;14.88;;
81651;SDS011;71061;55.714;37.794;2024-02-23T13:54:38;44.22;;;16.90;;
81651;SDS011;71061;55.714;37.794;2024-02-23T14:00:19;35.40;;;16.05;;
81651;SDS011;71061;55.714;37.794;2024-02-23T14:03:21;38.45;;;15.68;;
81651;SDS011;71061;55.714;37.794;2024-02-23T14:05:50;42.40;;;17.40;;
81651;SDS011;71061;55.714;37.794;2024-02-23T14:08:19;34.22;;;14.60;;
81651;SDS011;71061;55.714;37.794;2024-02-23T14:10:45;44.05;;;17.85;;
81651;SDS011;71061;55.714;37.794;2024-02-23T14:13:12;40.20;;;17.25;;
81651;SDS011;71061;55.714;37.794;2024-02-23T14:15:40;42.05;;;16.48;;
81651;SDS011;71061;55.714;37.794;2024-02-23T14:18:06;37.85;;;14.90;;
81651;SDS011;71061;55.714;37.794;2024-02-23T14:20:32;36.58;;;16.52;;
81651;SDS011;71061;55.714;37.794;2024-02-23T14:22:59;39.70;;;17.27;;
81651;SDS011;71061;55.714;37.794;2024-02-23T14:25:25;39.40;;;17.05;;
81651;SDS011;71061;55.714;37.794;2024-02-23T14:27:56;40.15;;;17.48;;
81651;SDS011;71061;55.714;37.794;2024-02-23T14:33:19;40.30;;;18.67;;
81651;SDS011;71061;55.714;37.794;2024-02-23T14:35:46;49.72;;;17.63;;
81651;SDS011;71061;55.714;37.794;2024-02-23T14:38:12;49.17;;;19.10;;
81651;SDS011;71061;55.714;37.794;2024-02-23T14:40:38;41.03;;;18.42;;
81651;SDS011;71061;55.714;37.794;2024-02-23T14:43:05;41.60;;;18.20;;
81651;SDS011;71061;55.714;37.794;2024-02-23T14:45:33;40.88;;;18.98;;
81651;SDS011;71061;55.714;37.794;2024-02-23T14:48:06;39.45;;;18.70;;
81651;SDS011;71061;55.714;37.794;2024-02-23T14:50:35;44.53;;;19.27;;
81651;SDS011;71061;55.714;37.794;2024-02-23T14:53:06;47.05;;;18.70;;
81651;SDS011;71061;55.714;37.794;2024-02-23T14:55:40;47.25;;;21.38;;
81651;SDS011;71061;55.714;37.794;2024-02-23T14:58:24;44.53;;;17.25;;
81651;SDS011;71061;55.714;37.794;2024-02-23T15:01:32;49.65;;;20.48;;
81651;SDS011;71061;55.714;37.794;2024-02-23T15:04:19;44.75;;;20.75;;
81651;SDS011;71061;55.714;37.794;2024-02-23T15:06:48;47.92;;;19.45;;
81651;SDS011;71061;55.714;37.794;2024-02-23T15:10:06;43.13;;;17.75;;
81651;SDS011;71061;55.714;37.794;2024-02-23T15:13:14;38.25;;;17.73;;
81651;SDS011;71061;55.714;37.794;2024-02-23T15:19:10;43.03;;;19.05;;
81651;SDS011;71061;55.714;37.794;2024-02-23T15:21:41;47.65;;;20.58;;
81651;SDS011;71061;55.714;37.794;2024-02-23T15:31:23;46.78;;;20.23;;
81651;SDS011;71061;55.714;37.794;2024-02-23T15:34:30;46.53;;;18.60;;
81651;SDS011;71061;55.714;37.794;2024-02-23T15:49:02;43.08;;;19.25;;
81651;SDS011;71061;55.714;37.794;2024-02-23T15:52:16;42.10;;;19.80;;
81651;SDS011;71061;55.714;37.794;2024-02-23T15:54:55;46.22;;;21.13;;
81651;SDS011;71061;55.714;37.794;2024-02-23T15:57:51;43.78;;;18.65;;
81651;SDS011;71061;55.714;37.794;2024-02-23T16:00:22;43.97;;;18.70;;
81651;SDS011;71061;55.714;37.794;2024-02-23T16:03:24;42.30;;;21.17;;
81651;SDS011;71061;55.714;37.794;2024-02-23T16:06:01;47.45;;;22.35;;
81651;SDS011;71061;55.714;37.794;2024-02-23T16:10:21;46.47;;;21.80;;
81651;SDS011;71061;55.714;37.794;2024-02-23T16:16:49;43.33;;;21.17;;
81651;SDS011;71061;55.714;37.794;2024-02-23T16:19:16;44.17;;;21.27;;
81651;SDS011;71061;55.714;37.794;2024-02-23T16:21:44;41.00;;;20.70;;
81651;SDS011;71061;55.714;37.794;2024-02-23T16:24:11;48.70;;;19.80;;
81651;SDS011;71061;55.714;37.794;2024-02-23T16:26:38;48.03;;;20.35;;
81651;SDS011;71061;55.714;37.794;2024-02-23T16:29:05;47.13;;;20.17;;
81651;SDS011;71061;55.714;37.794;2024-02-23T16:31:33;45.35;;;19.45;;
81651;SDS011;71061;55.714;37.794;2024-02-23T16:34:05;45.22;;;20.10;;
81651;SDS011;71061;55.714;37.794;2024-02-23T16:36:33;42.72;;;18.77;;
81651;SDS011;71061;55.714;37.794;2024-02-23T16:38:59;46.28;;;22.08;;
81651;SDS011;71061;55.714;37.794;2024-02-23T16:41:31;45.53;;;19.75;;
81651;SDS011;71061;55.714;37.794;2024-02-23T16:44:09;52.42;;;23.60;;
81651;SDS011;71061;55.714;37.794;2024-02-23T16:46:47;48.45;;;20.40;;
81651;SDS011;71061;55.714;37.794;2024-02-23T16:49:14;41.25;;;19.10;;
81651;SDS011;71061;55.714;37.794;2024-02-23T16:51:41;41.33;;;18.40;;
81651;SDS011;71061;55.714;37.794;2024-02-23T16:54:19;44.42;;;21.02;;
81651;SDS011;71061;55.714;37.794;2024-02-23T16:56:46;40.40;;;17.00;;
81651;SDS011;71061;55.714;37.794;2024-02-23T16:59:13;43.38;;;19.85;;
81651;SDS011;71061;55.714;37.794;2024-02-23T17:01:41;44.25;;;18.27;;
81651;SDS011;71061;55.714;37.794;2024-02-23T17:04:10;38.08;;;18.80;;
81651;SDS011;71061;55.714;37.794;2024-02-23T17:06:36;37.15;;;17.05;;
81651;SDS011;71061;55.714;37.794;2024-02-23T17:09:04;36.22;;;17.83;;
81651;SDS011;71061;55.714;37.794;2024-02-23T17:11:37;43.92;;;18.80;;
81651;SDS011;71061;55.714;37.794;2024-02-23T17:14:04;36.30;;;17.35;;
81651;SDS011;71061;55.714;37.794;2024-02-23T17:16:31;39.92;;;17.13;;
81651;SDS011;71061;55.714;37.794;2024-02-23T17:18:57;46.25;;;18.27;;
81651;SDS011;71061;55.714;37.794;2024-02-23T17:21:27;39.17;;;18.17;;
81651;SDS011;71061;55.714;37.794;2024-02-23T17:23:56;37.97;;;16.20;;
81651;SDS011;71061;55.714;37.794;2024-02-23T17:26:22;42.60;;;17.17;;
81651;SDS011;71061;55.714;37.794;2024-02-23T17:28:52;38.25;;;18.60;;
81651;SDS011;71061;55.714;37.794;2024-02-23T17:31:26;37.33;;;18.73;;
81651;SDS011;71061;55.714;37.794;2024-02-23T17:33:57;40.50;;;19.63;;
81651;SDS011;71061;55.714;37.794;2024-02-23T17:36:26;42.55;;;18.67;;
81651;SDS011;71061;55.714;37.794;2024-02-23T17:38:52;40.15;;;17.73;;
81651;SDS011;71061;55.714;37.794;2024-02-23T17:41:18;40.90;;;19.40;;
81651;SDS011;71061;55.714;37.794;2024-02-23T17:43:45;40.17;;;17.15;;
81651;SDS011;71061;55.714;37.794;2024-02-23T17:46:10;41.97;;;18.83;;
81651;SDS011;71061;55.714;37.794;2024-02-23T17:48:39;38.75;;;17.13;;
81651;SDS011;71061;55.714;37.794;2024-02-23T17:51:05;38.65;;;17.65;;
81651;SDS011;71061;55.714;37.794;2024-02-23T17:53:31;44.67;;;20.17;;
81651;SDS011;71061;55.714;37.794;2024-02-23T17:55:57;41.83;;;18.20;;
81651;SDS011;71061;55.714;37.794;2024-02-23T17:58:24;40.50;;;18.15;;
81651;SDS011;71061;55.714;37.794;2024-02-23T18:00:52;42.20;;;19.08;;
81651;SDS011;71061;55.714;37.794;2024-02-23T18:03:30;46.13;;;18.33;;
81651;SDS011;71061;55.714;37.794;2024-02-23T18:06:05;42.85;;;17.80;;
81651;SDS011;71061;55.714;37.794;2024-02-23T18:08:31;39.47;;;18.52;;
81651;SDS011;71061;55.714;37.794;2024-02-23T18:11:02;38.75;;;17.50;;
81651;SDS011;71061;55.714;37.794;2024-02-23T18:13:31;43.80;;;18.25;;
81651;SDS011;71061;55.714;37.794;2024-02-23T18:16:15;34.72;;;16.17;;
81651;SDS011;71061;55.714;37.794;2024-02-23T18:18:44;43.20;;;17.92;;
81651;SDS011;71061;55.714;37.794;2024-02-23T18:21:10;42.92;;;20.55;;
81651;SDS011;71061;55.714;37.794;2024-02-23T18:23:39;46.45;;;17.65;;
81651;SDS011;71061;55.714;37.794;2024-02-23T18:26:11;41.92;;;18.25;;
81651;SDS011;71061;55.714;37.794;2024-02-23T18:28:38;35.50;;;17.05;;
81651;SDS011;71061;55.714;37.794;2024-02-23T18:31:04;38.38;;;17.77;;
81651;SDS011;71061;55.714;37.794;2024-02-23T18:33:32;36.80;;;15.65;;
81651;SDS011;71061;55.714;37.794;2024-02-23T18:36:00;36.28;;;16.35;;
81651;SDS011;71061;55.714;37.794;2024-02-23T18:38:29;35.00;;;16.33;;
81651;SDS011;71061;55.714;37.794;2024-02-23T18:41:03;30.42;;;15.73;;
81651;SDS011;71061;55.714;37.794;2024-02-23T18:43:33;33.55;;;15.05;;
81651;SDS011;71061;55.714;37.794;2024-02-23T18:46:02;26.50;;;13.95;;
81651;SDS011;71061;55.714;37.794;2024-02-23T18:48:29;32.15;;;14.77;;
81651;SDS011;71061;55.714;37.794;2024-02-23T18:50:58;33.92;;;15.10;;
81651;SDS011;71061;55.714;37.794;2024-02-23T18:53:35;30.50;;;14.98;;
81651;SDS011;71061;55.714;37.794;2024-02-23T18:56:06;32.22;;;14.43;;
81651;SDS011;71061;55.714;37.794;2024-02-23T18:58:40;31.70;;;16.60;;
81651;SDS011;71061;55.714;37.794;2024-02-23T19:01:06;30.35;;;13.00;;
81651;SDS011;71061;55.714;37.794;2024-02-23T19:03:38;30.02;;;13.07;;
81651;SDS011;71061;55.714;37.794;2024-02-23T19:06:06;32.13;;;14.10;;
81651;SDS011;71061;55.714;37.794;2024-02-23T19:08:33;29.20;;;13.63;;
81651;SDS011;71061;55.714;37.794;2024-02-23T19:11:01;30.45;;;15.57;;
81651;SDS011;71061;55.714;37.794;2024-02-23T19:13:28;30.25;;;12.25;;
81651;SDS011;71061;55.714;37.794;2024-02-23T19:16:00;28.67;;;14.10;;
81651;SDS011;71061;55.714;37.794;2024-02-23T19:18:31;29.77;;;14.10;;
81651;SDS011;71061;55.714;37.794;2024-02-23T19:21:15;32.63;;;14.45;;
81651;SDS011;71061;55.714;37.794;2024-02-23T19:23:50;32.33;;;15.60;;
81651;SDS011;71061;55.714;37.794;2024-02-23T19:27:08;33.60;;;15.95;;
81651;SDS011;71061;55.714;37.794;2024-02-23T19:48:19;27.75;;;13.25;;
81651;SDS011;71061;55.714;37.794;2024-02-23T19:50:45;31.42;;;14.52;;
81651;SDS011;71061;55.714;37.794;2024-02-23T20:01:01;28.65;;;11.40;;
81651;SDS011;71061;55.714;37.794;2024-02-23T20:03:49;29.92;;;13.65;;
81651;SDS011;71061;55.714;37.794;2024-02-23T20:06:29;29.08;;;13.77;;
81651;SDS011;71061;55.714;37.794;2024-02-23T20:14:30;33.90;;;14.07;;
81651;SDS011;71061;55.714;37.794;2024-02-23T20:17:08;27.38;;;14.05;;
81651;SDS011;71061;55.714;37.794;2024-02-23T20:19:42;28.48;;;14.23;;
81651;SDS011;71061;55.714;37.794;2024-02-23T20:22:28;29.75;;;14.65;;
81651;SDS011;71061;55.714;37.794;2024-02-23T20:26:06;30.77;;;15.05;;
81651;SDS011;71061;55.714;37.794;2024-02-23T20:28:42;30.42;;;14.10;;
81651;SDS011;71061;55.714;37.794;2024-02-23T20:31:23;31.42;;;14.80;;
81651;SDS011;71061;55.714;37.794;2024-02-23T20:34:26;30.17;;;14.57;;
81651;SDS011;71061;55.714;37.794;2024-02-23T20:37:27;25.67;;;12.38;;
81651;SDS011;71061;55.714;37.794;2024-02-23T20:40:39;25.60;;;13.35;;
81651;SDS011;71061;55.714;37.794;2024-02-23T20:43:08;27.40;;;13.77;;
81651;SDS011;71061;55.714;37.794;2024-02-23T20:45:35;24.05;;;11.65;;
81651;SDS011;71061;55.714;37.794;2024-02-23T20:51:15;23.55;;;11.82;;
81651;SDS011;71061;55.714;37.794;2024-02-23T20:53:52;20.60;;;10.18;;
81651;SDS011;71061;55.714;37.794;2024-02-23T20:56:19;23.00;;;10.32;;
81651;SDS011;71061;55.714;37.794;2024-02-23T20:59:08;25.60;;;11.32;;
81651;SDS011;71061;55.714;37.794;2024-02-23T21:01:34;22.73;;;11.18;;
81651;SDS011;71061;55.714;37.794;2024-02-23T21:04:00;23.45;;;11.20;;
81651;SDS011;71061;55.714;37.794;2024-02-23T21:06:28;27.70;;;13.05;;
81651;SDS011;71061;55.714;37.794;2024-02-23T21:09:00;25.80;;;12.02;;
81651;SDS011;71061;55.714;37.794;2024-02-23T21:11:53;26.58;;;12.75;;
81651;SDS011;71061;55.714;37.794;2024-02-23T21:14:31;23.92;;;11.77;;
81651;SDS011;71061;55.714;37.794;2024-02-23T21:17:16;23.38;;;11.38;;
81651;SDS011;71061;55.714;37.794;2024-02-23T21:19:42;25.05;;;12.52;;
81651;SDS011;71061;55.714;37.794;2024-02-23T21:22:16;23.60;;;12.38;;
81651;SDS011;71061;55.714;37.794;2024-02-23T21:24:51;23.83;;;11.82;;
81651;SDS011;71061;55.714;37.794;2024-02-23T21:27:21;26.65;;;14.55;;
81651;SDS011;71061;55.714;37.794;2024-02-23T21:29:50;26.15;;;12.48;;